createdAt,value
2019-05-09T00:00:49.805Z,11.52
2019-05-09T00:03:20.092Z,11.55
2019-05-09T00:05:50.319Z,11.51
2019-05-09T00:08:20.535Z,11.49
2019-05-09T00:10:53.299Z,11.42
2019-05-09T00:13:23.731Z,11.48
2019-05-09T00:15:54.544Z,11.35
2019-05-09T00:18:24.683Z,11.29
2019-05-09T00:21:07.949Z,11.38
2019-05-09T00:23:38.112Z,11.45
2019-05-09T00:26:09.164Z,11.46
2019-05-09T00:28:44.088Z,11.51
2019-05-09T00:31:33.789Z,11.53
2019-05-09T00:34:06.497Z,11.48
2019-05-09T00:36:36.696Z,11.47
2019-05-09T00:39:07.397Z,11.45
2019-05-09T00:41:37.572Z,11.52
2019-05-09T00:44:14.410Z,11.47
2019-05-09T00:46:53.507Z,11.52
2019-05-09T00:49:25.367Z,11.52
2019-05-09T00:51:55.699Z,11.49
2019-05-09T00:54:25.919Z,11.50
2019-05-09T00:56:56.135Z,11.46
2019-05-09T00:59:26.315Z,11.32
2019-05-09T01:01:56.558Z,11.22
2019-05-09T01:04:26.737Z,11.13
2019-05-09T01:06:59.953Z,11.08
2019-05-09T01:09:48.095Z,10.98
2019-05-09T01:12:18.247Z,10.94
2019-05-09T01:14:50.695Z,11.03
2019-05-09T01:17:20.878Z,11.12
2019-05-09T01:19:54.221Z,11.14
2019-05-09T01:22:24.405Z,11.15
2019-05-09T01:24:54.731Z,11.01
2019-05-09T01:27:24.909Z,11.15
2019-05-09T01:29:55.059Z,11.24
2019-05-09T01:32:43.330Z,11.25
2019-05-09T01:35:13.272Z,11.17
2019-05-09T01:37:43.525Z,11.05
2019-05-09T01:40:13.847Z,11.04
2019-05-09T01:42:44.969Z,11.04
2019-05-09T01:45:15.190Z,11.14
2019-05-09T01:47:45.353Z,11.21
2019-05-09T01:50:15.481Z,11.19
2019-05-09T01:52:45.672Z,11.17
2019-05-09T01:55:15.983Z,11.16
2019-05-09T01:57:47.996Z,11.14
2019-05-09T02:00:19.136Z,11.15
2019-05-09T02:02:49.263Z,11.15
2019-05-09T02:05:19.496Z,11.14
2019-05-09T02:07:49.579Z,11.13
2019-05-09T02:10:19.748Z,11.13
2019-05-09T02:12:49.871Z,11.17
2019-05-09T02:15:36.042Z,11.17
2019-05-09T02:18:13.711Z,11.14
2019-05-09T02:20:43.974Z,11.14
2019-05-09T02:23:14.237Z,11.14
2019-05-09T02:25:44.535Z,11.14
2019-05-09T02:28:14.697Z,11.16
2019-05-09T02:30:45.224Z,11.16
2019-05-09T02:33:15.433Z,11.16
2019-05-09T02:35:55.874Z,11.12
2019-05-09T02:38:19.993Z,11.11
2019-05-09T02:40:49.888Z,11.12
2019-05-09T02:43:20.206Z,11.15
2019-05-09T02:46:20.823Z,11.00
2019-05-09T02:49:14.280Z,11.11
2019-05-09T02:51:44.402Z,11.11
2019-05-09T02:54:14.518Z,11.11
2019-05-09T02:56:44.653Z,11.14
2019-05-09T02:59:20.854Z,11.00
2019-05-09T03:01:58.747Z,10.99
2019-05-09T03:04:29.095Z,10.90
2019-05-09T03:07:00.005Z,10.93
2019-05-09T03:09:30.277Z,10.99
2019-05-09T03:12:20.484Z,11.05
2019-05-09T03:14:38.309Z,11.05
2019-05-09T03:17:08.716Z,11.07
2019-05-09T03:19:39.440Z,11.07
2019-05-09T03:22:15.188Z,11.07
2019-05-09T03:24:48.318Z,10.96
2019-05-09T03:27:28.776Z,11.01
2019-05-09T03:30:03.176Z,11.00
2019-05-09T03:32:33.280Z,11.01
2019-05-09T03:35:03.439Z,11.01
2019-05-09T03:37:42.293Z,11.00
2019-05-09T03:40:12.426Z,11.03
2019-05-09T03:42:43.804Z,11.05
2019-05-09T03:45:18.363Z,11.05
2019-05-09T03:47:58.292Z,10.97
2019-05-09T03:50:30.076Z,11.04
2019-05-09T03:53:00.276Z,11.02
2019-05-09T03:55:38.201Z,11.05
2019-05-09T03:58:12.786Z,11.09
2019-05-09T04:00:49.179Z,11.07
2019-05-09T04:03:22.178Z,11.10
2019-05-09T04:05:59.091Z,11.12
2019-05-09T04:08:24.342Z,11.12
2019-05-09T04:10:54.482Z,11.04
2019-05-09T04:13:30.202Z,10.91
2019-05-09T04:16:00.342Z,11.01
2019-05-09T04:18:30.447Z,11.05
2019-05-09T04:21:00.582Z,10.87
2019-05-09T04:23:31.088Z,10.92
2019-05-09T04:26:20.315Z,10.82
2019-05-09T04:28:50.404Z,11.01
2019-05-09T04:31:20.560Z,10.87
2019-05-09T04:33:50.698Z,11.01
2019-05-09T04:36:38.717Z,11.05
2019-05-09T04:39:23.157Z,11.11
2019-05-09T04:41:49.765Z,11.00
2019-05-09T04:44:57.659Z,10.98
2019-05-09T04:47:27.681Z,10.87
2019-05-09T04:49:58.367Z,11.03
2019-05-09T04:52:29.648Z,10.98
2019-05-09T04:54:59.752Z,10.87
2019-05-09T04:57:29.970Z,11.09
2019-05-09T05:00:00.125Z,11.19
2019-05-09T05:02:38.073Z,11.32
2019-05-09T05:05:08.742Z,11.24
2019-05-09T05:07:38.877Z,11.34
2019-05-09T05:10:09.216Z,11.38
2019-05-09T05:12:39.391Z,11.35
2019-05-09T05:15:09.948Z,11.38
2019-05-09T05:17:40.127Z,11.48
2019-05-09T05:20:15.426Z,11.37
2019-05-09T05:22:53.998Z,11.45
2019-05-09T05:25:24.617Z,11.65
2019-05-09T05:27:54.792Z,11.69
2019-05-09T05:30:28.311Z,11.64
2019-05-09T05:33:04.015Z,11.82
2019-05-09T05:35:37.755Z,11.89
2019-05-09T05:38:08.597Z,11.65
2019-05-09T05:40:44.736Z,11.86
2019-05-09T05:43:12.047Z,11.95
2019-05-09T05:45:58.509Z,12.16
2019-05-09T05:48:30.761Z,12.21
2019-05-09T05:51:00.984Z,12.27
2019-05-09T05:53:32.367Z,12.26
2019-05-09T05:56:02.560Z,12.17
2019-05-09T05:58:32.796Z,12.13
2019-05-09T06:01:04.633Z,12.22
2019-05-09T06:03:37.644Z,12.28
2019-05-09T06:06:08.802Z,12.23
2019-05-09T06:08:39.300Z,12.37
2019-05-09T06:11:12.270Z,12.30
2019-05-09T06:13:53.256Z,12.40
2019-05-09T06:16:13.115Z,12.45
2019-05-09T06:18:43.297Z,12.50
2019-05-09T06:21:13.429Z,12.57
2019-05-09T06:23:43.777Z,12.52
2019-05-09T06:26:13.984Z,12.56
2019-05-09T06:28:44.135Z,12.31
2019-05-09T06:31:14.255Z,12.20
2019-05-09T06:33:47.157Z,12.16
2019-05-09T06:36:18.777Z,12.13
2019-05-09T06:38:48.905Z,12.13
2019-05-09T06:41:19.054Z,12.01
2019-05-09T06:43:52.670Z,12.00
2019-05-09T06:46:48.266Z,12.03
2019-05-09T06:49:28.299Z,11.89
2019-05-09T06:51:54.965Z,12.18
2019-05-09T06:54:25.125Z,12.19
2019-05-09T06:56:55.401Z,12.33
2019-05-09T06:59:25.543Z,12.52
2019-05-09T07:02:00.723Z,12.77
2019-05-09T07:04:47.599Z,13.04
2019-05-09T07:07:30.020Z,13.12
2019-05-09T07:10:01.920Z,13.22
2019-05-09T07:12:32.099Z,13.41
2019-05-09T07:15:02.290Z,13.48
2019-05-09T07:17:32.615Z,13.44
2019-05-09T07:20:02.759Z,13.72
2019-05-09T07:22:44.046Z,13.78
2019-05-09T07:25:51.694Z,13.97
2019-05-09T07:28:21.843Z,14.06
2019-05-09T07:31:01.783Z,13.94
2019-05-09T07:33:53.503Z,14.09
2019-05-09T07:36:23.890Z,14.25
2019-05-09T07:38:54.044Z,14.32
2019-05-09T07:41:24.220Z,14.20
2019-05-09T07:43:54.340Z,14.31
2019-05-09T07:46:32.579Z,14.21
2019-05-09T07:49:08.781Z,14.40
2019-05-09T07:51:39.044Z,14.58
2019-05-09T07:54:21.312Z,14.71
2019-05-09T07:56:42.001Z,14.83
2019-05-09T07:59:12.120Z,14.88
2019-05-09T08:01:42.258Z,14.84
2019-05-09T08:04:12.458Z,14.68
2019-05-09T08:06:42.654Z,14.54
2019-05-09T08:09:12.779Z,14.40
2019-05-09T08:11:43.008Z,14.13
2019-05-09T08:14:13.150Z,14.13
2019-05-09T08:16:43.299Z,14.06
2019-05-09T08:19:13.391Z,14.17
2019-05-09T08:21:43.550Z,14.05
2019-05-09T08:24:13.668Z,14.18
2019-05-09T08:26:43.832Z,14.37
2019-05-09T08:29:13.962Z,14.59
2019-05-09T08:31:45.675Z,14.91
2019-05-09T08:34:15.901Z,15.24
2019-05-09T08:36:47.746Z,15.50
2019-05-09T08:39:20.461Z,15.69
2019-05-09T08:41:50.098Z,16.10
2019-05-09T08:44:20.273Z,16.26
2019-05-09T08:46:50.415Z,16.01
2019-05-09T08:49:24.004Z,16.29
2019-05-09T08:52:15.774Z,16.22
2019-05-09T08:54:41.192Z,16.30
2019-05-09T08:57:11.520Z,16.30
2019-05-09T08:59:41.644Z,16.22
2019-05-09T09:02:15.654Z,16.04
2019-05-09T09:04:43.557Z,15.95
2019-05-09T09:07:13.677Z,15.99
2019-05-09T09:09:43.823Z,15.96
2019-05-09T09:12:25.948Z,16.23
2019-05-09T09:14:47.781Z,16.58
2019-05-09T09:17:18.744Z,16.85
2019-05-09T09:19:49.984Z,16.90
2019-05-09T09:22:20.183Z,16.62
2019-05-09T09:24:50.377Z,16.76
2019-05-09T09:27:20.492Z,16.72
2019-05-09T09:29:50.658Z,17.02
2019-05-09T09:32:20.804Z,16.88
2019-05-09T09:34:50.947Z,16.75
2019-05-09T09:37:21.102Z,16.89
2019-05-09T09:39:51.250Z,16.84
2019-05-09T09:42:21.473Z,16.75
2019-05-09T09:44:51.627Z,16.97
2019-05-09T09:47:24.669Z,17.29
2019-05-09T09:49:55.147Z,17.19
2019-05-09T09:52:29.374Z,16.84
2019-05-09T09:54:58.475Z,16.78
2019-05-09T09:57:29.005Z,16.94
2019-05-09T10:00:19.404Z,16.69
2019-05-09T10:02:49.549Z,16.80
2019-05-09T10:05:19.692Z,16.96
2019-05-09T10:07:49.867Z,16.78
2019-05-09T10:10:35.207Z,16.83
2019-05-09T10:13:10.350Z,17.32
2019-05-09T10:16:02.668Z,17.47
2019-05-09T10:18:47.031Z,17.71
2019-05-09T10:21:21.147Z,17.89
2019-05-09T10:23:51.727Z,17.49
2019-05-09T10:26:22.333Z,17.75
2019-05-09T10:28:52.658Z,18.01
2019-05-09T10:31:24.624Z,18.20
2019-05-09T10:33:55.064Z,18.36
2019-05-09T10:36:27.659Z,18.33
2019-05-09T10:38:58.422Z,18.00
2019-05-09T10:41:29.212Z,17.65
2019-05-09T10:44:21.415Z,17.72
2019-05-09T10:47:10.539Z,17.46
2019-05-09T10:49:40.809Z,17.28
2019-05-09T10:52:14.248Z,17.48
2019-05-09T10:54:42.773Z,17.49
2019-05-09T10:57:12.885Z,17.66
2019-05-09T10:59:43.038Z,17.72
2019-05-09T11:02:13.335Z,17.77
2019-05-09T11:04:46.303Z,17.72
2019-05-09T11:07:18.067Z,17.96
2019-05-09T11:09:48.137Z,18.30
2019-05-09T11:12:18.836Z,18.37
2019-05-09T11:14:49.215Z,18.65
2019-05-09T11:17:21.962Z,18.83
2019-05-09T11:19:51.333Z,18.47
2019-05-09T11:22:23.567Z,18.24
2019-05-09T11:24:53.636Z,18.06
2019-05-09T11:27:23.780Z,18.00
2019-05-09T11:29:54.006Z,18.11
2019-05-09T11:32:24.297Z,18.19
2019-05-09T11:34:54.621Z,17.99
2019-05-09T11:37:25.001Z,17.90
2019-05-09T11:39:57.846Z,17.71
2019-05-09T11:42:28.550Z,17.72
2019-05-09T11:44:59.057Z,17.65
2019-05-09T11:47:39.491Z,17.65
2019-05-09T11:50:01.227Z,17.85
2019-05-09T11:52:31.443Z,17.94
2019-05-09T11:55:03.656Z,18.01
2019-05-09T11:57:33.895Z,18.18
2019-05-09T12:00:04.335Z,18.39
2019-05-09T12:02:38.387Z,18.32
2019-05-09T12:05:08.764Z,18.37
2019-05-09T12:07:39.168Z,18.20
2019-05-09T12:10:09.718Z,18.31
2019-05-09T12:12:39.857Z,18.28
2019-05-09T12:15:10.155Z,18.38
2019-05-09T12:17:54.011Z,18.64
2019-05-09T12:20:13.725Z,18.61
2019-05-09T12:22:44.165Z,18.68
2019-05-09T12:25:14.582Z,18.75
2019-05-09T12:27:44.828Z,18.49
2019-05-09T12:30:15.071Z,18.60
2019-05-09T12:32:45.259Z,18.32
2019-05-09T12:35:15.481Z,18.31
2019-05-09T12:37:45.602Z,18.46
2019-05-09T12:40:19.780Z,18.78
2019-05-09T12:42:50.554Z,18.80
2019-05-09T12:45:20.663Z,18.70
2019-05-09T12:48:06.250Z,18.55
2019-05-09T12:50:22.734Z,18.38
2019-05-09T12:52:52.979Z,18.65
2019-05-09T12:55:23.109Z,18.80
2019-05-09T12:57:53.266Z,19.15
2019-05-09T13:00:24.510Z,19.21
2019-05-09T13:02:54.666Z,18.98
2019-05-09T13:05:27.255Z,19.13
2019-05-09T13:07:57.738Z,19.51
2019-05-09T13:10:28.339Z,19.79
2019-05-09T13:12:58.710Z,19.61
2019-05-09T13:15:38.469Z,19.62
2019-05-09T13:18:21.349Z,19.85
2019-05-09T13:20:40.542Z,19.74
2019-05-09T13:23:10.667Z,19.58
2019-05-09T13:25:40.832Z,19.05
2019-05-09T13:28:10.963Z,19.11
2019-05-09T13:30:41.122Z,19.24
2019-05-09T13:33:11.301Z,19.15
2019-05-09T13:35:42.506Z,19.04
2019-05-09T13:38:12.654Z,18.77
2019-05-09T13:40:42.752Z,18.40
2019-05-09T13:43:12.926Z,18.30
2019-05-09T13:45:43.047Z,18.45
2019-05-09T13:48:26.399Z,18.56
2019-05-09T13:50:45.076Z,18.45
2019-05-09T13:53:15.374Z,18.30
2019-05-09T13:55:47.888Z,18.09
2019-05-09T13:58:19.607Z,18.35
2019-05-09T14:00:59.134Z,18.82
2019-05-09T14:03:21.006Z,19.16
2019-05-09T14:05:51.139Z,18.96
2019-05-09T14:08:21.278Z,18.75
2019-05-09T14:10:51.426Z,18.54
2019-05-09T14:13:23.469Z,18.85
2019-05-09T14:15:53.476Z,19.00
2019-05-09T14:18:23.672Z,18.78
2019-05-09T14:20:54.221Z,18.82
2019-05-09T14:23:24.400Z,19.23
2019-05-09T14:25:54.545Z,19.53
2019-05-09T14:28:24.889Z,19.35
2019-05-09T14:30:55.009Z,19.26
2019-05-09T14:33:25.288Z,19.18
2019-05-09T14:35:55.426Z,19.08
2019-05-09T14:38:25.568Z,19.36
2019-05-09T14:40:56.672Z,19.26
2019-05-09T14:43:27.885Z,19.37
2019-05-09T14:45:58.143Z,19.68
2019-05-09T14:48:31.723Z,19.72
2019-05-09T14:51:02.080Z,19.58
2019-05-09T14:53:32.223Z,19.39
2019-05-09T14:56:02.601Z,18.91
2019-05-09T14:58:32.844Z,18.65
2019-05-09T15:01:02.969Z,18.81
2019-05-09T15:03:34.853Z,18.91
2019-05-09T15:06:07.388Z,19.01
2019-05-09T15:08:38.260Z,19.16
2019-05-09T15:11:10.018Z,19.17
2019-05-09T15:13:40.317Z,19.42
2019-05-09T15:16:10.469Z,20.04
2019-05-09T15:18:40.616Z,20.24
2019-05-09T15:21:10.737Z,20.67
2019-05-09T15:23:40.883Z,20.93
2019-05-09T15:26:11.018Z,20.82
2019-05-09T15:28:41.664Z,20.43
2019-05-09T15:31:11.927Z,19.97
2019-05-09T15:33:42.184Z,19.80
2019-05-09T15:36:12.399Z,19.51
2019-05-09T15:38:42.518Z,19.46
2019-05-09T15:41:12.683Z,19.31
2019-05-09T15:43:42.865Z,19.08
2019-05-09T15:46:27.930Z,19.22
2019-05-09T15:48:58.346Z,19.16
2019-05-09T15:51:32.013Z,19.07
2019-05-09T15:54:00.476Z,18.62
2019-05-09T15:56:30.692Z,18.47
2019-05-09T15:59:02.937Z,18.40
2019-05-09T16:01:33.174Z,18.46
2019-05-09T16:04:08.398Z,18.55
2019-05-09T16:06:39.737Z,18.42
2019-05-09T16:09:12.085Z,18.45
2019-05-09T16:11:43.856Z,18.50
2019-05-09T16:14:18.203Z,18.52
2019-05-09T16:16:48.109Z,18.47
2019-05-09T16:19:18.386Z,18.22
2019-05-09T16:21:52.417Z,18.26
2019-05-09T16:24:27.814Z,18.39
2019-05-09T16:26:59.417Z,18.30
2019-05-09T16:29:32.481Z,18.03
2019-05-09T16:32:02.750Z,18.13
2019-05-09T16:34:32.844Z,18.03
2019-05-09T16:37:07.806Z,17.71
2019-05-09T16:39:40.623Z,17.62
2019-05-09T16:42:13.891Z,17.56
2019-05-09T16:44:43.977Z,17.65
2019-05-09T16:47:14.280Z,17.59
2019-05-09T16:49:44.459Z,17.47
2019-05-09T16:52:20.482Z,17.62
2019-05-09T16:55:08.192Z,17.50
2019-05-09T16:57:43.316Z,17.46
2019-05-09T17:00:18.325Z,17.69
2019-05-09T17:02:48.550Z,17.81
2019-05-09T17:05:18.723Z,17.81
2019-05-09T17:07:52.163Z,17.94
2019-05-09T17:10:22.909Z,17.81
2019-05-09T17:12:58.214Z,17.99
2019-05-09T17:15:29.210Z,18.06
2019-05-09T17:17:59.541Z,18.02
2019-05-09T17:20:42.214Z,18.18
2019-05-09T17:23:18.698Z,18.08
2019-05-09T17:25:57.850Z,17.92
2019-05-09T17:28:30.284Z,17.89
2019-05-09T17:31:00.581Z,17.79
2019-05-09T17:33:30.745Z,17.79
2019-05-09T17:36:00.832Z,17.48
2019-05-09T17:38:30.974Z,17.43
2019-05-09T17:41:02.529Z,17.38
2019-05-09T17:43:34.338Z,17.19
2019-05-09T17:46:04.501Z,17.32
2019-05-09T17:48:34.652Z,17.21
2019-05-09T17:51:04.744Z,16.91
2019-05-09T17:53:34.878Z,17.00
2019-05-09T17:56:10.895Z,17.10
2019-05-09T17:58:43.754Z,17.26
2019-05-09T18:01:17.959Z,17.12
2019-05-09T18:03:48.354Z,17.13
2019-05-09T18:06:19.265Z,17.07
2019-05-09T18:08:50.510Z,17.01
2019-05-09T18:11:21.911Z,16.94
2019-05-09T18:13:52.163Z,16.87
2019-05-09T18:16:22.299Z,16.79
2019-05-09T18:18:55.519Z,16.71
2019-05-09T18:21:25.658Z,16.45
2019-05-09T18:23:58.635Z,16.43
2019-05-09T18:26:28.987Z,16.41
2019-05-09T18:29:01.745Z,16.38
2019-05-09T18:31:48.215Z,16.34
2019-05-09T18:34:18.708Z,16.22
2019-05-09T18:36:48.790Z,16.26
2019-05-09T18:39:20.311Z,16.13
2019-05-09T18:41:50.459Z,16.01
2019-05-09T18:44:21.535Z,15.95
2019-05-09T18:46:52.894Z,15.89
2019-05-09T18:49:23.021Z,15.92
2019-05-09T18:52:03.287Z,15.93
2019-05-09T18:54:25.271Z,15.90
2019-05-09T18:56:57.952Z,15.87
2019-05-09T18:59:31.355Z,15.69
2019-05-09T19:02:01.845Z,15.64
2019-05-09T19:04:32.003Z,15.43
2019-05-09T19:07:02.115Z,15.49
2019-05-09T19:09:32.323Z,15.50
2019-05-09T19:12:02.536Z,15.43
2019-05-09T19:14:34.761Z,15.38
2019-05-09T19:17:32.758Z,15.37
2019-05-09T19:20:26.193Z,15.29
2019-05-09T19:22:56.627Z,15.11
2019-05-09T19:25:26.765Z,14.94
2019-05-09T19:27:56.881Z,14.90
2019-05-09T19:30:27.020Z,14.85
2019-05-09T19:32:57.115Z,14.71
2019-05-09T19:35:27.735Z,14.67
2019-05-09T19:37:57.852Z,14.60
2019-05-09T19:40:27.991Z,14.54
2019-05-09T19:43:03.041Z,14.47
2019-05-09T19:45:33.289Z,14.37
2019-05-09T19:48:03.566Z,14.33
2019-05-09T19:50:33.671Z,14.24
2019-05-09T19:53:03.918Z,14.20
2019-05-09T19:55:34.073Z,14.16
2019-05-09T19:58:04.245Z,14.10
2019-05-09T20:00:34.630Z,14.03
2019-05-09T20:03:05.141Z,13.99
2019-05-09T20:05:36.263Z,13.92
2019-05-09T20:08:06.518Z,13.85
2019-05-09T20:10:54.642Z,13.75
2019-05-09T20:13:41.784Z,13.59
2019-05-09T20:16:12.291Z,13.55
2019-05-09T20:18:42.512Z,13.53
2019-05-09T20:21:12.635Z,13.49
2019-05-09T20:23:42.759Z,13.40
2019-05-09T20:26:13.442Z,13.33
2019-05-09T20:28:43.595Z,13.31
2019-05-09T20:31:13.861Z,13.30
2019-05-09T20:33:44.045Z,13.23
2019-05-09T20:36:14.202Z,13.15
2019-05-09T20:38:44.637Z,13.14
2019-05-09T20:41:14.954Z,13.11
2019-05-09T20:43:45.383Z,13.06
2019-05-09T20:46:15.719Z,13.01
2019-05-09T20:48:46.170Z,12.98
2019-05-09T20:51:16.514Z,12.94
2019-05-09T20:53:46.862Z,12.86
2019-05-09T20:56:17.254Z,12.78
2019-05-09T20:58:47.556Z,12.74
2019-05-09T21:01:17.944Z,12.71
2019-05-09T21:03:59.709Z,12.68
2019-05-09T21:06:20.294Z,12.65
2019-05-09T21:08:50.674Z,12.61
2019-05-09T21:11:21.062Z,12.57
2019-05-09T21:13:51.350Z,12.48
2019-05-09T21:16:21.664Z,12.48
2019-05-09T21:18:52.040Z,12.42
2019-05-09T21:21:22.366Z,12.37
2019-05-09T21:23:53.745Z,12.36
2019-05-09T21:26:24.152Z,12.33
2019-05-09T21:28:54.492Z,12.29
2019-05-09T21:31:24.945Z,12.24
2019-05-09T21:33:56.530Z,12.19
2019-05-09T21:36:26.800Z,12.17
2019-05-09T21:38:56.966Z,12.10
2019-05-09T21:41:27.088Z,12.14
2019-05-09T21:43:58.752Z,11.98
2019-05-09T21:46:28.866Z,12.10
2019-05-09T21:48:58.976Z,12.11
2019-05-09T21:51:29.064Z,12.12
2019-05-09T21:53:59.190Z,12.04
2019-05-09T21:56:29.275Z,12.05
2019-05-09T21:58:59.402Z,12.06
2019-05-09T22:01:29.566Z,12.05
2019-05-09T22:04:02.119Z,12.03
2019-05-09T22:06:32.308Z,11.99
2019-05-09T22:09:03.680Z,11.91
2019-05-09T22:11:33.868Z,11.90
2019-05-09T22:14:03.991Z,11.87
2019-05-09T22:16:34.145Z,11.80
2019-05-09T22:19:04.266Z,11.82
2019-05-09T22:21:34.438Z,11.80
2019-05-09T22:24:04.658Z,11.75
2019-05-09T22:26:34.868Z,11.71
2019-05-09T22:29:05.086Z,11.65
2019-05-09T22:31:35.175Z,11.64
2019-05-09T22:34:05.332Z,11.60
2019-05-09T22:36:35.450Z,11.55
2019-05-09T22:39:07.371Z,11.51
2019-05-09T22:41:37.466Z,11.42
2019-05-09T22:44:07.601Z,11.44
2019-05-09T22:46:37.703Z,11.42
2019-05-09T22:49:07.870Z,11.40
2019-05-09T22:51:37.986Z,11.36
2019-05-09T22:54:12.648Z,11.30
2019-05-09T22:56:40.132Z,11.28
2019-05-09T22:59:10.255Z,11.27
2019-05-09T23:01:40.341Z,11.16
2019-05-09T23:04:10.454Z,11.18
2019-05-09T23:06:40.537Z,11.13
2019-05-09T23:09:10.686Z,11.10
2019-05-09T23:11:40.804Z,11.09
2019-05-09T23:14:11.035Z,11.05
2019-05-09T23:16:44.160Z,11.02
2019-05-09T23:19:14.508Z,10.98
2019-05-09T23:21:44.572Z,10.95
2019-05-09T23:24:27.946Z,10.95
2019-05-09T23:26:48.554Z,10.93
2019-05-09T23:29:18.677Z,10.91
2019-05-09T23:32:12.098Z,10.86
2019-05-09T23:34:42.424Z,10.80
2019-05-09T23:37:13.242Z,10.80
2019-05-09T23:39:45.313Z,10.79
2019-05-09T23:42:15.420Z,10.76
2019-05-09T23:44:45.503Z,10.77
2019-05-09T23:47:15.596Z,10.64
2019-05-09T23:49:45.764Z,10.69
2019-05-09T23:52:15.852Z,10.68
2019-05-09T23:55:04.947Z,10.63
2019-05-09T23:57:52.628Z,10.60
